Time;durP1;ratioP1;P1;durP2;ratioP2;P2;SDS_P1;SDS_P2;PMS_P1;PMS_P2;Temp;Humidity;BMP_temperature;BMP_pressure;BME280_temperature;BME280_humidity;BME280_pressure;Samples;Min_cycle;Max_cycle;Signal;HPM_P1;HPM_P2
2021/04/13 00:00:44;;;;;;;2.17;1.98;;;1.30;99.90;;;;;;2021038;69;21104;-80
2021/04/13 00:03:10;;;;;;;2.15;1.65;;;1.30;99.90;;;;;;2021056;71;21039;-79
2021/04/13 00:05:36;;;;;;;1.87;1.72;;;1.40;99.90;;;;;;2021155;71;21054;-79
2021/04/13 00:08:02;;;;;;;1.95;1.47;;;1.40;99.90;;;;;;2021043;71;21145;-79
2021/04/13 00:10:28;;;;;;;1.85;1.67;;;1.40;99.90;;;;;;2021066;71;21064;-79
2021/04/13 00:12:54;;;;;;;3.12;1.95;;;1.40;99.90;;;;;;2021066;71;21039;-78
2021/04/13 00:15:20;;;;;;;5.72;1.77;;;1.50;99.90;;;;;;2020985;71;21035;-78
2021/04/13 00:17:47;;;;;;;3.22;1.90;;;1.50;99.90;;;;;;2020968;70;21124;-78
2021/04/13 00:20:13;;;;;;;2.75;2.17;;;1.50;99.90;;;;;;2020976;71;21463;-78
2021/04/13 00:22:40;;;;;;;4.05;2.40;;;1.50;99.90;;;;;;2021118;71;21516;-79
2021/04/13 00:25:06;;;;;;;4.22;2.25;;;1.50;99.90;;;;;;2020870;70;21058;-79
2021/04/13 00:27:32;;;;;;;2.20;1.77;;;1.40;99.90;;;;;;2021092;71;21080;-78
2021/04/13 00:29:58;;;;;;;2.22;1.82;;;1.40;99.90;;;;;;2020920;70;21089;-79
2021/04/13 00:32:25;;;;;;;2.30;1.80;;;1.40;99.90;;;;;;2021109;71;21084;-79
2021/04/13 00:37:23;;;;;;;7.17;2.30;;;1.20;99.90;;;;;;2020902;71;21484;-79
2021/04/13 00:39:50;;;;;;;8.50;2.20;;;1.20;99.90;;;;;;2020912;69;21463;-79
2021/04/13 00:42:16;;;;;;;3.60;1.87;;;1.20;99.90;;;;;;2020878;71;21063;-78
2021/04/13 00:44:42;;;;;;;4.03;2.10;;;1.20;99.90;;;;;;2020857;71;21046;-79
2021/04/13 00:47:08;;;;;;;3.58;2.30;;;1.20;99.90;;;;;;2020957;69;21104;-78
2021/04/13 00:49:34;;;;;;;4.53;2.33;;;1.20;99.90;;;;;;2020978;70;21120;-78
2021/04/13 00:52:00;;;;;;;6.50;2.15;;;1.20;99.90;;;;;;2020814;71;21039;-79
2021/04/13 00:54:27;;;;;;;6.47;2.62;;;1.20;99.90;;;;;;2020912;71;21098;-78
2021/04/13 00:56:54;;;;;;;2.90;2.27;;;1.20;99.90;;;;;;2020822;71;21509;-79
2021/04/13 00:59:20;;;;;;;4.67;1.82;;;1.10;99.90;;;;;;2021062;70;21016;-79
2021/04/13 01:01:46;;;;;;;4.05;1.95;;;1.10;99.90;;;;;;2020820;71;21152;-78
2021/04/13 01:04:12;;;;;;;2.17;2.05;;;1.10;99.90;;;;;;2021014;71;21043;-79
2021/04/13 01:06:38;;;;;;;6.03;2.55;;;1.00;99.90;;;;;;2020752;70;21043;-78
2021/04/13 01:09:04;;;;;;;5.28;2.67;;;1.00;99.90;;;;;;2020930;71;21039;-79
2021/04/13 01:11:30;;;;;;;3.45;2.50;;;1.00;99.90;;;;;;2020971;71;21129;-78
2021/04/13 01:13:57;;;;;;;3.25;2.55;;;1.00;99.90;;;;;;2020900;71;21393;-78
2021/04/13 01:16:23;;;;;;;6.40;2.67;;;1.00;99.90;;;;;;2021166;71;21565;-79
2021/04/13 01:18:49;;;;;;;3.90;2.52;;;1.00;99.90;;;;;;2020909;71;21471;-78
2021/04/13 01:21:16;;;;;;;3.45;2.75;;;1.00;99.90;;;;;;2021069;71;21566;-78
2021/04/13 01:23:53;;;;;;;5.67;2.47;;;1.00;99.90;;;;;;2021053;70;21051;-79
2021/04/13 01:26:16;;;;;;;3.72;2.65;;;0.90;99.90;;;;;;2020139;71;21148;-79
2021/04/13 01:28:44;;;;;;;3.85;3.20;;;0.90;99.90;;;;;;2021339;71;21068;-79
2021/04/13 01:31:10;;;;;;;6.10;3.27;;;1.00;99.90;;;;;;2020816;71;21496;-78
2021/04/13 01:33:43;;;;;;;6.60;3.00;;;1.00;99.90;;;;;;2021195;69;21123;-79
2021/04/13 01:36:04;;;;;;;4.10;2.87;;;1.00;99.90;;;;;;2019063;71;21060;-79
2021/04/13 01:38:40;;;;;;;4.78;3.40;;;1.10;99.90;;;;;;2020918;71;21039;-78
2021/04/13 01:43:43;;;;;;;3.02;2.45;;;1.00;99.90;;;;;;1992599;72;21071;-78
2021/04/13 01:46:09;;;;;;;4.97;2.70;;;1.00;99.90;;;;;;1996289;70;21023;-77
2021/04/13 01:48:35;;;;;;;6.25;2.55;;;1.00;99.90;;;;;;2020984;71;21101;-78
2021/04/13 01:51:02;;;;;;;4.00;2.50;;;1.00;99.90;;;;;;2021045;71;21044;-77
2021/04/13 01:53:28;;;;;;;3.33;2.65;;;1.00;99.90;;;;;;2020954;71;21031;-78
2021/04/13 01:55:54;;;;;;;3.27;2.42;;;1.00;99.90;;;;;;2020972;71;21043;-77
2021/04/13 01:58:20;;;;;;;2.77;2.35;;;0.90;99.90;;;;;;2021035;71;21092;-78
2021/04/13 02:00:49;;;;;;;3.33;2.55;;;0.90;99.90;;;;;;2021128;71;21063;-79
2021/04/13 02:03:14;;;;;;;3.90;2.50;;;0.80;99.90;;;;;;2020915;70;21064;-77
2021/04/13 02:05:40;;;;;;;2.40;2.20;;;0.80;99.90;;;;;;2021174;71;21023;-79
2021/04/13 02:08:08;;;;;;;5.70;2.47;;;0.70;99.90;;;;;;2021055;69;21027;-78
2021/04/13 02:10:37;;;;;;;3.65;2.27;;;0.80;99.90;;;;;;2021192;70;21056;-79
2021/04/13 02:13:02;;;;;;;2.45;2.25;;;0.70;99.90;;;;;;2020841;70;21469;-77
2021/04/13 02:15:28;;;;;;;3.40;2.72;;;0.70;99.90;;;;;;2021004;71;21459;-78
2021/04/13 02:17:54;;;;;;;3.45;2.37;;;0.80;99.90;;;;;;2021170;69;21455;-78
2021/04/13 02:20:20;;;;;;;5.92;2.60;;;0.80;99.90;;;;;;2020960;71;21512;-77
2021/04/13 02:22:46;;;;;;;4.65;2.58;;;0.80;99.90;;;;;;2020989;70;21086;-78
2021/04/13 02:25:12;;;;;;;5.08;3.05;;;0.70;99.90;;;;;;2020842;71;21020;-78
2021/04/13 02:27:39;;;;;;;2.58;2.22;;;0.70;99.90;;;;;;2020945;71;21043;-77
2021/04/13 02:30:05;;;;;;;2.62;2.42;;;0.60;99.90;;;;;;2020986;71;21035;-78
2021/04/13 02:32:31;;;;;;;2.85;2.60;;;0.60;99.90;;;;;;2021055;71;21039;-76
2021/04/13 02:34:57;;;;;;;3.62;2.75;;;0.70;99.90;;;;;;2021162;69;21062;-78
2021/04/13 02:37:23;;;;;;;2.90;2.37;;;0.60;99.90;;;;;;2021107;71;21027;-78
2021/04/13 02:39:49;;;;;;;3.17;2.85;;;0.50;99.90;;;;;;2021095;71;21108;-78
2021/04/13 02:42:17;;;;;;;3.80;2.85;;;0.50;99.90;;;;;;2021081;69;21502;-78
2021/04/13 02:44:43;;;;;;;4.72;2.65;;;0.50;99.90;;;;;;2021113;70;21079;-79
2021/04/13 02:47:09;;;;;;;5.53;2.92;;;0.50;99.90;;;;;;2020956;71;21109;-76
2021/04/13 02:49:35;;;;;;;4.37;2.75;;;0.50;99.90;;;;;;2021134;71;21072;-78
2021/04/13 02:52:02;;;;;;;6.55;3.20;;;0.50;99.90;;;;;;2021022;71;21431;-78
2021/04/13 02:54:28;;;;;;;3.67;2.60;;;0.50;99.90;;;;;;2020926;71;21100;-79
2021/04/13 02:56:54;;;;;;;3.10;2.42;;;0.40;99.90;;;;;;2020948;71;21114;-79
2021/04/13 02:59:20;;;;;;;2.40;2.05;;;0.40;99.90;;;;;;2021081;70;21064;-77
2021/04/13 03:01:46;;;;;;;2.90;2.52;;;0.30;99.90;;;;;;2021102;71;21099;-79
2021/04/13 03:04:12;;;;;;;2.47;2.12;;;0.20;99.90;;;;;;2021068;71;21112;-78
2021/04/13 03:06:38;;;;;;;3.40;2.17;;;0.20;99.90;;;;;;2020913;71;21016;-79
2021/04/13 03:09:05;;;;;;;2.90;2.37;;;0.10;99.90;;;;;;2020906;69;21084;-78
2021/04/13 03:11:31;;;;;;;2.47;2.02;;;0.10;99.90;;;;;;2020868;71;21140;-78
2021/04/13 03:13:57;;;;;;;4.17;2.80;;;0.10;99.90;;;;;;2020919;71;21086;-78
2021/04/13 03:16:23;;;;;;;4.37;2.65;;;0.20;99.90;;;;;;2021039;71;21536;-78
2021/04/13 03:18:49;;;;;;;3.92;2.90;;;0.20;99.90;;;;;;2020975;71;21452;-78
2021/04/13 03:21:15;;;;;;;3.52;2.72;;;0.20;99.90;;;;;;2020783;71;21403;-78
2021/04/13 03:23:41;;;;;;;5.42;2.90;;;0.30;99.90;;;;;;2021182;71;21043;-78
2021/04/13 03:26:07;;;;;;;3.75;2.55;;;0.30;99.90;;;;;;2021086;71;21076;-79
2021/04/13 03:28:34;;;;;;;4.15;3.33;;;0.40;99.90;;;;;;2021155;71;21068;-78
2021/04/13 03:31:00;;;;;;;4.15;3.27;;;0.40;99.90;;;;;;2020933;71;21069;-77
2021/04/13 03:33:26;;;;;;;3.47;3.00;;;0.50;99.90;;;;;;2021049;70;21121;-78
2021/04/13 03:35:52;;;;;;;4.15;3.05;;;0.50;99.90;;;;;;2020742;71;21019;-78
2021/04/13 03:38:18;;;;;;;5.45;3.90;;;0.60;99.90;;;;;;2020912;70;21439;-78
2021/04/13 03:40:44;;;;;;;3.58;2.77;;;0.50;99.90;;;;;;2020974;71;21455;-79
2021/04/13 03:43:10;;;;;;;3.20;2.75;;;0.50;99.90;;;;;;2020948;71;21412;-78
2021/04/13 03:45:36;;;;;;;4.62;2.98;;;0.60;99.90;;;;;;2020861;71;21090;-78
2021/04/13 03:48:02;;;;;;;8.05;3.52;;;0.60;99.90;;;;;;2020906;69;21039;-78
2021/04/13 03:50:29;;;;;;;3.65;2.92;;;0.60;99.90;;;;;;2020923;71;21108;-78
2021/04/13 03:52:55;;;;;;;3.00;2.75;;;0.60;99.90;;;;;;2015654;70;21044;-78
2021/04/13 03:55:21;;;;;;;5.53;3.65;;;0.50;99.90;;;;;;2020873;70;21114;-77
2021/04/13 03:57:47;;;;;;;5.67;3.33;;;0.50;99.90;;;;;;2020861;71;21059;-78
2021/04/13 04:00:13;;;;;;;4.35;2.92;;;0.50;99.90;;;;;;2022572;71;21066;-79
2021/04/13 04:02:39;;;;;;;5.12;3.52;;;0.40;99.90;;;;;;2020785;71;21496;-78
2021/04/13 04:05:08;;;;;;;4.08;3.33;;;0.40;99.90;;;;;;2022902;69;21484;-79
2021/04/13 04:07:44;;;;;;;4.28;3.15;;;0.30;99.90;;;;;;2020673;70;21019;-79
2021/04/13 04:10:04;;;;;;;;;;;0.30;99.90;;;;;;2021380;71;21035;-78
2021/04/13 04:12:31;;;;;;;4.37;2.92;;;0.30;99.90;;;;;;2020924;71;20137;-79
2021/04/13 04:14:57;;;;;;;4.30;3.40;;;0.20;99.90;;;;;;2020983;70;21534;-78
2021/04/13 04:17:23;;;;;;;4.12;3.05;;;0.20;99.90;;;;;;2020871;70;21043;-78
2021/04/13 04:19:49;;;;;;;5.83;3.40;;;0.20;99.90;;;;;;2020880;71;21035;-79
2021/04/13 04:22:16;;;;;;;5.97;3.80;;;0.20;99.90;;;;;;2020883;71;21012;-78
2021/04/13 04:24:42;;;;;;;4.00;3.20;;;0.20;99.90;;;;;;2020885;69;21027;-78
2021/04/13 04:27:08;;;;;;;3.60;2.80;;;0.20;99.90;;;;;;2021423;71;21083;-78
2021/04/13 04:29:34;;;;;;;5.60;3.75;;;0.20;99.90;;;;;;2020954;71;21034;-78
2021/04/13 04:32:00;;;;;;;5.37;3.90;;;0.20;99.90;;;;;;2021042;71;21060;-77
2021/04/13 04:34:26;;;;;;;8.53;4.72;;;0.20;99.90;;;;;;2021101;71;21067;-78
2021/04/13 04:36:52;;;;;;;6.03;3.87;;;0.20;99.90;;;;;;2021042;71;20996;-77
2021/04/13 04:39:18;;;;;;;6.47;4.28;;;0.20;99.90;;;;;;2020901;71;21037;-77
2021/04/13 04:41:45;;;;;;;6.30;4.08;;;0.10;99.90;;;;;;2020937;71;21031;-79
2021/04/13 04:44:11;;;;;;;6.42;4.03;;;0.00;99.90;;;;;;2020881;71;21047;-77
2021/04/13 04:46:38;;;;;;;6.35;3.80;;;0.10;99.90;;;;;;2020884;71;21517;-76
2021/04/13 04:49:04;;;;;;;5.20;3.87;;;0.10;99.90;;;;;;2021002;70;21046;-78
2021/04/13 04:51:30;;;;;;;4.83;3.80;;;0.20;99.90;;;;;;2021118;71;21068;-78
2021/04/13 04:53:56;;;;;;;6.45;3.60;;;0.10;99.90;;;;;;2021032;71;21103;-78
2021/04/13 04:56:23;;;;;;;8.83;4.25;;;0.10;99.90;;;;;;2021147;71;21012;-77
2021/04/13 04:58:49;;;;;;;4.60;3.95;;;0.00;99.90;;;;;;2021051;71;21012;-72
2021/04/13 05:01:15;;;;;;;5.55;3.83;;;0.00;99.90;;;;;;2021197;69;21472;-73
2021/04/13 05:03:42;;;;;;;4.37;3.75;;;0.00;99.90;;;;;;2020963;71;21007;-73
2021/04/13 05:06:08;;;;;;;5.05;4.12;;;0.00;99.90;;;;;;2020949;70;21459;-75
2021/04/13 05:08:34;;;;;;;6.75;4.53;;;0.10;99.90;;;;;;2021075;71;21487;-74
2021/04/13 05:11:00;;;;;;;6.85;3.95;;;0.20;99.90;;;;;;2021036;69;21039;-73
2021/04/13 05:13:27;;;;;;;10.45;4.85;;;0.20;99.90;;;;;;2020955;71;21089;-75
2021/04/13 05:15:53;;;;;;;6.20;3.70;;;0.30;99.90;;;;;;2021057;71;21141;-76
2021/04/13 05:18:19;;;;;;;5.30;4.08;;;0.30;99.90;;;;;;2021016;71;21031;-75
2021/04/13 05:20:46;;;;;;;5.90;4.22;;;0.20;99.90;;;;;;2021030;71;21060;-75
2021/04/13 05:23:12;;;;;;;6.75;4.37;;;0.20;99.90;;;;;;2020909;71;21524;-76
2021/04/13 05:25:38;;;;;;;7.28;4.45;;;0.10;99.90;;;;;;2020950;71;21428;-75
2021/04/13 05:28:04;;;;;;;10.55;4.45;;;0.20;99.90;;;;;;2020952;71;21035;-75
2021/04/13 05:30:30;;;;;;;9.15;4.90;;;0.30;99.90;;;;;;2020921;71;21039;-75
2021/04/13 05:32:56;;;;;;;8.18;4.40;;;0.30;99.90;;;;;;2020927;71;21661;-75
2021/04/13 05:35:23;;;;;;;7.35;4.67;;;0.40;99.90;;;;;;2020954;71;21043;-75
2021/04/13 05:37:49;;;;;;;7.83;4.55;;;0.50;99.90;;;;;;2020913;71;21027;-75
2021/04/13 05:40:15;;;;;;;9.13;4.30;;;0.50;99.90;;;;;;2021013;69;21060;-75
2021/04/13 05:42:41;;;;;;;7.08;4.08;;;0.50;99.90;;;;;;2021007;69;21064;-73
2021/04/13 05:45:07;;;;;;;9.43;4.78;;;0.50;99.90;;;;;;2021009;71;21103;-75
2021/04/13 05:47:33;;;;;;;9.13;4.25;;;0.50;99.90;;;;;;2020869;71;21067;-76
2021/04/13 05:49:59;;;;;;;11.12;4.95;;;0.60;99.90;;;;;;2020902;71;21035;-76
2021/04/13 05:52:25;;;;;;;5.70;4.50;;;0.60;99.90;;;;;;2020913;71;21047;-73
2021/04/13 05:54:52;;;;;;;7.03;4.42;;;0.60;99.90;;;;;;2021063;71;21468;-74
2021/04/13 05:57:18;;;;;;;8.83;4.60;;;0.60;99.90;;;;;;2020896;71;21039;-76
2021/04/13 05:59:44;;;;;;;7.60;4.85;;;0.70;99.90;;;;;;2020731;71;21035;-77
2021/04/13 06:02:10;;;;;;;5.58;4.03;;;0.70;99.90;;;;;;2021310;71;21068;-78
2021/04/13 06:04:36;;;;;;;7.40;4.60;;;0.80;99.90;;;;;;2021100;71;21060;-78
2021/04/13 06:07:02;;;;;;;6.33;4.83;;;0.80;99.90;;;;;;2020995;71;21083;-77
2021/04/13 06:09:28;;;;;;;6.50;4.47;;;0.90;99.90;;;;;;2020869;70;21039;-74
2021/04/13 06:11:54;;;;;;;7.55;4.92;;;1.00;99.90;;;;;;2021049;71;21035;-76
2021/04/13 06:14:23;;;;;;;9.63;5.90;;;1.00;99.90;;;;;;2020809;71;21047;-74
2021/04/13 06:16:49;;;;;;;7.15;4.83;;;1.20;99.90;;;;;;2021056;70;21133;-75
2021/04/13 06:19:16;;;;;;;6.00;4.60;;;1.50;99.90;;;;;;2021079;71;21133;-75
2021/04/13 06:21:42;;;;;;;11.68;5.25;;;1.70;99.90;;;;;;2022550;71;21038;-75
2021/04/13 06:24:08;;;;;;;7.05;4.37;;;1.80;99.90;;;;;;2020991;71;21075;-76
2021/04/13 06:26:34;;;;;;;7.55;4.85;;;1.90;99.90;;;;;;2020852;71;21023;-74
2021/04/13 06:29:00;;;;;;;4.87;4.25;;;2.00;99.90;;;;;;2016300;70;21080;-74
2021/04/13 06:31:26;;;;;;;6.65;4.30;;;2.10;99.90;;;;;;2020739;70;21078;-75
2021/04/13 06:33:52;;;;;;;10.82;4.75;;;2.20;99.90;;;;;;2020955;71;21119;-76
2021/04/13 06:36:19;;;;;;;6.25;4.05;;;2.20;99.90;;;;;;2022566;71;21512;-75
2021/04/13 06:38:45;;;;;;;10.70;4.95;;;2.30;99.90;;;;;;2020940;71;21524;-75
2021/04/13 06:41:11;;;;;;;5.90;4.12;;;2.60;99.90;;;;;;2020938;71;21039;-75
2021/04/13 06:43:37;;;;;;;8.75;4.70;;;2.70;99.90;;;;;;2021064;71;21126;-76
2021/04/13 06:46:03;;;;;;;7.00;4.30;;;2.70;99.90;;;;;;2021064;71;21123;-76
2021/04/13 06:48:30;;;;;;;9.00;5.05;;;2.90;99.90;;;;;;2020963;71;21035;-76
2021/04/13 06:50:56;;;;;;;7.12;4.87;;;3.00;99.90;;;;;;2020891;71;21042;-75
2021/04/13 06:53:23;;;;;;;8.48;4.80;;;3.00;99.90;;;;;;2020750;71;21028;-75
2021/04/13 06:55:49;;;;;;;7.17;4.80;;;3.10;99.90;;;;;;2020993;69;21072;-75
2021/04/13 06:58:15;;;;;;;6.20;4.58;;;3.40;99.90;;;;;;2020735;71;21035;-75
2021/04/13 07:00:41;;;;;;;7.53;4.65;;;3.60;99.90;;;;;;2020730;70;21157;-76
2021/04/13 07:03:07;;;;;;;11.83;4.60;;;3.70;99.90;;;;;;2020690;71;21467;-76
2021/04/13 07:05:33;;;;;;;7.47;4.20;;;4.00;99.90;;;;;;2020847;71;21566;-76
2021/04/13 07:07:59;;;;;;;6.75;4.15;;;4.10;99.90;;;;;;2020914;71;21455;-75
2021/04/13 07:10:26;;;;;;;10.20;5.08;;;4.30;99.90;;;;;;2020889;71;21039;-76
2021/04/13 07:12:52;;;;;;;8.58;4.80;;;4.30;99.90;;;;;;2020732;69;21023;-76
2021/04/13 07:15:18;;;;;;;6.08;4.12;;;4.30;99.90;;;;;;2020934;69;21535;-76
2021/04/13 07:17:45;;;;;;;12.50;4.72;;;4.30;99.90;;;;;;2020705;71;21016;-76
2021/04/13 07:20:11;;;;;;;8.03;4.83;;;4.30;99.90;;;;;;2020925;71;21039;-76
2021/04/13 07:22:37;;;;;;;7.87;5.12;;;4.60;99.90;;;;;;2020830;70;21083;-76
2021/04/13 07:25:03;;;;;;;8.08;4.35;;;4.90;99.90;;;;;;2021005;71;21064;-77
2021/04/13 07:27:29;;;;;;;7.37;4.65;;;5.00;99.90;;;;;;2020726;71;21043;-76
2021/04/13 07:29:55;;;;;;;14.00;5.03;;;5.10;99.90;;;;;;2020962;71;21071;-76
2021/04/13 07:32:21;;;;;;;10.18;5.05;;;5.20;99.90;;;;;;2021155;71;21060;-76
2021/04/13 07:34:47;;;;;;;8.88;5.00;;;5.40;99.90;;;;;;2021194;71;21115;-76
2021/04/13 07:37:15;;;;;;;7.05;4.87;;;5.40;99.90;;;;;;2021016;71;21145;-76
2021/04/13 07:39:41;;;;;;;8.38;4.55;;;5.20;99.90;;;;;;2020732;70;21165;-76
2021/04/13 07:42:07;;;;;;;4.80;4.17;;;5.20;99.90;;;;;;2020956;71;21199;-77
2021/04/13 07:44:34;;;;;;;5.45;4.55;;;5.20;99.90;;;;;;2021138;71;21060;-77
2021/04/13 07:47:00;;;;;;;6.25;4.70;;;5.50;99.90;;;;;;2020869;71;20996;-77
2021/04/13 07:49:26;;;;;;;5.15;4.12;;;5.60;99.90;;;;;;2021180;69;21134;-77
2021/04/13 07:51:52;;;;;;;4.58;3.65;;;5.90;99.90;;;;;;2020813;70;21464;-77
2021/04/13 07:54:18;;;;;;;7.42;4.58;;;6.00;99.90;;;;;;2021038;71;21140;-77
2021/04/13 07:56:44;;;;;;;5.40;4.47;;;6.30;99.90;;;;;;2021032;71;21067;-78
2021/04/13 07:59:14;;;;;;;7.17;4.58;;;6.20;99.90;;;;;;2020756;71;21124;-76
2021/04/13 08:01:38;;;;;;;7.20;4.00;;;6.40;99.90;;;;;;2020559;71;21075;-76
2021/04/13 08:04:05;;;;;;;5.47;3.85;;;6.80;99.90;;;;;;2020773;71;21047;-76
2021/04/13 08:06:34;;;;;;;5.90;4.15;;;7.00;99.90;;;;;;2020878;70;21447;-77
2021/04/13 08:09:00;;;;;;;5.85;3.90;;;7.20;99.90;;;;;;2020653;71;21141;-77
2021/04/13 08:11:26;;;;;;;6.17;3.45;;;7.50;99.90;;;;;;2021112;71;21393;-77
2021/04/13 08:13:52;;;;;;;5.83;3.90;;;7.60;99.90;;;;;;2020903;71;21489;-77
2021/04/13 08:16:18;;;;;;;7.40;4.00;;;7.70;99.90;;;;;;2021112;71;21479;-77
2021/04/13 08:18:45;;;;;;;6.42;4.08;;;7.90;99.90;;;;;;2020972;71;21054;-77
2021/04/13 08:21:11;;;;;;;4.87;3.50;;;7.80;99.90;;;;;;2020791;71;21046;-76
2021/04/13 08:23:38;;;;;;;5.65;4.03;;;7.30;99.90;;;;;;2020978;69;21551;-76
2021/04/13 08:26:04;;;;;;;4.33;3.55;;;7.60;99.90;;;;;;2020943;70;21050;-76
2021/04/13 08:28:30;;;;;;;5.42;3.65;;;8.00;99.90;;;;;;2021063;70;21068;-77
2021/04/13 08:32:50;;;;;;;6.67;3.95;;;8.00;99.90;;;;;;2021008;70;21076;-77
2021/04/13 08:36:00;;;;;;;5.45;3.70;;;7.80;99.90;;;;;;1947757;71;21131;-77
2021/04/13 08:38:26;;;;;;;3.25;2.95;;;8.20;99.90;;;;;;1958755;73;21048;-75
2021/04/13 08:40:52;;;;;;;4.25;3.05;;;8.10;99.90;;;;;;1958913;73;21128;-74
2021/04/13 08:43:18;;;;;;;8.85;2.50;;;8.10;99.90;;;;;;1958707;73;21052;-74
2021/04/13 08:45:46;;;;;;;5.40;3.22;;;8.50;99.90;;;;;;1958985;73;21081;-79
2021/04/13 08:48:14;;;;;;;4.80;3.30;;;8.50;99.90;;;;;;1958754;73;21076;-79
2021/04/13 08:50:40;;;;;;;6.25;3.27;;;7.70;99.90;;;;;;1959017;73;21073;-77
2021/04/13 08:53:06;;;;;;;4.83;3.00;;;7.40;99.90;;;;;;1959249;73;21530;-78
2021/04/13 08:55:33;;;;;;;4.90;2.65;;;7.60;99.90;;;;;;1959203;73;21479;-78
2021/04/13 08:57:59;;;;;;;9.60;2.80;;;8.30;99.90;;;;;;1959045;73;21552;-79
2021/04/13 09:00:25;;;;;;;5.67;3.27;;;8.30;99.90;;;;;;1958821;73;21109;-78
2021/04/13 09:02:51;;;;;;;3.83;2.90;;;8.30;99.90;;;;;;1958884;73;21128;-77
2021/04/13 09:05:18;;;;;;;4.05;2.80;;;8.40;99.90;;;;;;1958822;73;20993;-78
2021/04/13 09:07:46;;;;;;;5.47;3.40;;;8.50;99.90;;;;;;1958850;73;21101;-79
2021/04/13 09:10:12;;;;;;;4.87;3.15;;;8.40;99.90;;;;;;1960552;73;21147;-78
2021/04/13 09:12:39;;;;;;;2.90;2.65;;;8.30;99.90;;;;;;1964511;73;21051;-77
2021/04/13 09:15:07;;;;;;;4.58;3.30;;;8.40;99.90;;;;;;1938049;72;21107;-76
2021/04/13 09:17:33;;;;;;;5.22;2.95;;;8.90;99.90;;;;;;1935262;74;21083;-78
2021/04/13 09:19:59;;;;;;;10.08;3.17;;;9.40;99.90;;;;;;1953471;73;21081;-79
2021/04/13 09:22:30;;;;;;;3.33;2.75;;;9.70;99.90;;;;;;1953659;73;21124;-77
2021/04/13 09:24:53;;;;;;;6.87;3.30;;;8.50;99.90;;;;;;1944099;74;21504;-77
2021/04/13 09:27:20;;;;;;;6.05;3.25;;;8.20;99.90;;;;;;1957278;73;21034;-78
2021/04/13 09:29:47;;;;;;;5.47;3.08;;;8.20;99.90;;;;;;1959006;73;21029;-78
2021/04/13 09:32:13;;;;;;;4.45;3.20;;;8.00;99.90;;;;;;1956958;73;21062;-78
2021/04/13 09:34:39;;;;;;;4.37;3.08;;;7.70;99.90;;;;;;1946456;74;21068;-77
2021/04/13 09:37:05;;;;;;;4.10;3.15;;;7.20;99.90;;;;;;1953615;73;21482;-77
2021/04/13 09:39:33;;;;;;;5.47;3.10;;;7.40;99.90;;;;;;1946843;74;21471;-77
2021/04/13 09:41:59;;;;;;;7.78;3.70;;;7.20;99.90;;;;;;1953514;73;21066;-78
2021/04/13 09:44:25;;;;;;;3.92;3.52;;;7.20;99.90;;;;;;1946751;74;21034;-77
2021/04/13 09:46:51;;;;;;;4.95;3.00;;;7.50;99.90;;;;;;1953379;73;21163;-77
2021/04/13 09:49:17;;;;;;;5.08;2.87;;;7.70;99.90;;;;;;1946751;74;21064;-78
2021/04/13 09:51:43;;;;;;;3.40;2.70;;;7.70;99.90;;;;;;1953418;73;21067;-78
2021/04/13 09:54:09;;;;;;;3.72;2.62;;;7.50;99.90;;;;;;1946832;74;21550;-78
2021/04/13 09:56:36;;;;;;;5.42;3.50;;;7.70;99.90;;;;;;1953816;73;20995;-78
2021/04/13 09:59:02;;;;;;;9.73;2.52;;;8.10;99.90;;;;;;1946661;74;21088;-79
2021/04/13 10:01:28;;;;;;;5.28;2.90;;;8.10;99.90;;;;;;1953732;73;21058;-79
2021/04/13 10:03:54;;;;;;;5.50;2.77;;;8.20;99.90;;;;;;1946951;74;21025;-79
2021/04/13 10:06:20;;;;;;;3.50;2.90;;;8.30;99.90;;;;;;1953543;73;21063;-79
2021/04/13 10:08:46;;;;;;;5.00;2.62;;;8.80;99.90;;;;;;1946566;74;21061;-79
2021/04/13 10:11:13;;;;;;;4.10;3.30;;;9.40;99.90;;;;;;1953784;73;21144;-81
2021/04/13 10:13:41;;;;;;;9.50;3.17;;;9.90;99.90;;;;;;1947404;74;21033;-77
2021/04/13 10:16:07;;;;;;;4.05;3.08;;;9.60;99.90;;;;;;1955287;73;21072;-81
2021/04/13 10:18:33;;;;;;;3.72;2.83;;;8.40;99.90;;;;;;1948262;74;21453;-80
2021/04/13 10:20:59;;;;;;;3.30;2.47;;;8.20;99.90;;;;;;1954789;73;21513;-80
2021/04/13 10:23:25;;;;;;;3.58;2.22;;;7.80;99.90;;;;;;1946569;74;21520;-80
2021/04/13 10:25:51;;;;;;;3.85;2.52;;;7.60;99.90;;;;;;1953578;73;21459;-79
2021/04/13 10:28:17;;;;;;;2.90;2.47;;;7.80;99.90;;;;;;1946545;74;21521;-78
2021/04/13 10:30:43;;;;;;;5.37;2.80;;;7.90;99.90;;;;;;1953726;73;21136;-80
2021/04/13 10:33:10;;;;;;;6.05;3.05;;;8.40;99.90;;;;;;1946544;74;21064;-79
2021/04/13 10:35:36;;;;;;;3.02;2.72;;;9.30;99.90;;;;;;1953694;73;21052;-82
2021/04/13 10:38:02;;;;;;;5.53;3.20;;;10.50;99.90;;;;;;1946678;74;21104;-79
2021/04/13 10:40:28;;;;;;;5.37;2.85;;;10.70;99.90;;;;;;1954164;73;21473;-80
2021/04/13 10:42:54;;;;;;;3.75;2.42;;;10.60;99.90;;;;;;1946639;74;21516;-78
2021/04/13 10:45:25;;;;;;;3.47;2.27;;;9.90;99.90;;;;;;1953545;73;21465;-81
2021/04/13 10:47:49;;;;;;;2.47;2.27;;;9.60;99.90;;;;;;1944597;74;21075;-80
2021/04/13 10:50:16;;;;;;;4.05;1.90;;;9.00;99.90;;;;;;1953557;73;21050;-80
2021/04/13 10:52:43;;;;;;;2.98;2.12;;;9.00;99.90;;;;;;1946705;74;21558;-80
2021/04/13 10:55:09;;;;;;;2.80;2.40;;;8.80;99.90;;;;;;1953436;73;21481;-81
2021/04/13 10:57:35;;;;;;;3.60;2.45;;;8.50;99.90;;;;;;1946818;74;21480;-80
2021/04/13 11:00:01;;;;;;;3.40;2.75;;;8.30;99.90;;;;;;1953411;73;21066;-80
2021/04/13 11:02:27;;;;;;;6.67;2.60;;;8.40;99.90;;;;;;1946569;74;21028;-77
2021/04/13 11:04:53;;;;;;;2.87;2.08;;;8.50;99.90;;;;;;1953399;73;21051;-80
2021/04/13 11:07:19;;;;;;;1.95;1.70;;;8.50;99.90;;;;;;1946678;74;21064;-79
2021/04/13 11:09:45;;;;;;;6.20;2.50;;;8.40;99.90;;;;;;1953546;73;21080;-78
2021/04/13 11:12:12;;;;;;;2.67;2.27;;;8.80;99.40;;;;;;1946761;74;21081;-81
2021/04/13 11:14:38;;;;;;;3.12;2.10;;;8.90;98.70;;;;;;1953644;73;21054;-80
2021/04/13 11:17:04;;;;;;;2.80;2.00;;;9.60;98.90;;;;;;1947014;74;21060;-80
2021/04/13 11:19:30;;;;;;;2.83;1.90;;;10.00;97.50;;;;;;1953898;73;21034;-79
2021/04/13 11:21:56;;;;;;;2.83;2.00;;;10.70;96.00;;;;;;1946579;74;21061;-80
2021/04/13 11:24:22;;;;;;;4.53;2.15;;;10.50;92.10;;;;;;1911063;75;21598;-80
2021/04/13 11:26:48;;;;;;;2.47;1.80;;;10.30;90.60;;;;;;1953659;73;21444;-78
2021/04/13 11:29:15;;;;;;;1.72;1.30;;;10.60;90.70;;;;;;1953556;73;21055;-81
2021/04/13 11:31:41;;;;;;;2.10;1.67;;;11.60;87.80;;;;;;1946730;74;21057;-77
2021/04/13 11:34:07;;;;;;;2.22;1.90;;;11.60;83.60;;;;;;1953605;73;21067;-77
2021/04/13 11:36:33;;;;;;;4.40;1.87;;;11.50;84.70;;;;;;1946507;74;21072;-77
2021/04/13 11:38:59;;;;;;;2.65;1.92;;;12.20;82.10;;;;;;1953521;73;21477;-77
2021/04/13 11:41:25;;;;;;;1.70;1.60;;;12.30;80.60;;;;;;1946758;74;21057;-78
2021/04/13 11:43:52;;;;;;;2.33;1.55;;;12.90;74.40;;;;;;1953515;73;21081;-76
2021/04/13 11:46:18;;;;;;;4.58;2.00;;;12.60;72.80;;;;;;1946591;74;21134;-80
2021/04/13 11:48:44;;;;;;;2.20;1.77;;;12.50;73.60;;;;;;1953654;73;21128;-77
2021/04/13 11:51:10;;;;;;;3.98;2.10;;;12.50;80.10;;;;;;1946778;74;21125;-78
2021/04/13 11:53:37;;;;;;;3.72;2.00;;;12.20;81.10;;;;;;1953508;73;21058;-77
2021/04/13 11:56:03;;;;;;;2.70;2.20;;;11.50;83.50;;;;;;1946824;73;21057;-77
2021/04/13 11:58:31;;;;;;;6.17;2.10;;;10.30;85.20;;;;;;1953591;73;21013;-77
2021/04/13 12:00:57;;;;;;;3.72;2.22;;;9.80;88.80;;;;;;1946257;73;21060;-77
2021/04/13 12:03:23;;;;;;;3.30;2.30;;;10.50;88.10;;;;;;1953504;73;21050;-77
2021/04/13 12:05:49;;;;;;;2.75;2.22;;;10.70;82.30;;;;;;1946536;73;21069;-78
2021/04/13 12:08:15;;;;;;;1.87;1.72;;;11.50;81.10;;;;;;1952654;73;21058;-78
2021/04/13 12:10:41;;;;;;;2.08;1.87;;;12.60;75.90;;;;;;1930567;74;21092;-76
2021/04/13 12:13:07;;;;;;;3.05;2.08;;;12.20;77.80;;;;;;1929907;74;21053;-78
2021/04/13 12:15:34;;;;;;;2.00;1.80;;;11.90;78.10;;;;;;1929849;74;21177;-77
2021/04/13 12:18:00;;;;;;;2.20;1.80;;;12.90;72.70;;;;;;1929907;74;21171;-77
2021/04/13 12:20:27;;;;;;;2.72;2.20;;;13.00;72.70;;;;;;1929905;74;21170;-76
2021/04/13 12:22:53;;;;;;;4.15;2.25;;;12.50;76.20;;;;;;1929965;73;21539;-76
2021/04/13 12:25:19;;;;;;;4.62;1.95;;;12.70;78.40;;;;;;1930016;73;21553;-76
2021/04/13 12:27:45;;;;;;;2.83;1.92;;;13.00;81.20;;;;;;1929837;74;21454;-77
2021/04/13 12:30:11;;;;;;;3.95;1.98;;;12.70;79.60;;;;;;1930048;74;21585;-78
2021/04/13 12:32:37;;;;;;;3.22;2.15;;;11.00;85.30;;;;;;1930011;74;21464;-78
2021/04/13 12:35:04;;;;;;;3.72;2.47;;;10.20;90.50;;;;;;1929854;74;21474;-77
2021/04/13 12:37:30;;;;;;;2.60;2.22;;;9.40;93.20;;;;;;1929961;74;21073;-78
2021/04/13 12:39:56;;;;;;;2.08;1.87;;;8.90;95.30;;;;;;1930306;73;21059;-77
2021/04/13 12:42:23;;;;;;;2.17;1.95;;;8.50;97.20;;;;;;1929891;74;21545;-78
2021/04/13 12:44:49;;;;;;;2.15;1.95;;;7.80;99.90;;;;;;1930100;74;21093;-79
2021/04/13 12:47:15;;;;;;;3.62;1.90;;;7.80;99.90;;;;;;1930098;74;21076;-76
2021/04/13 12:49:41;;;;;;;1.70;1.60;;;7.40;98.30;;;;;;1929932;74;21053;-77
2021/04/13 12:52:07;;;;;;;3.33;1.50;;;7.50;99.70;;;;;;1930134;73;21089;-79
2021/04/13 12:54:33;;;;;;;1.57;1.45;;;7.80;98.70;;;;;;1930005;74;21044;-80
2021/04/13 12:56:59;;;;;;;3.05;1.75;;;7.90;98.00;;;;;;1930063;74;21084;-79